sensor_id;sensor_type;location;lat;lon;timestamp;P1;durP1;ratioP1;P2;durP2;ratioP2
59876;SDS011;45749;51.140;17.184;2023-09-12T00:01:02;13.43;;;10.43;;
59876;SDS011;45749;51.140;17.184;2023-09-12T00:03:30;13.93;;;10.15;;
59876;SDS011;45749;51.140;17.184;2023-09-12T00:05:56;12.55;;;11.25;;
59876;SDS011;45749;51.140;17.184;2023-09-12T00:08:23;11.82;;;10.45;;
59876;SDS011;45749;51.140;17.184;2023-09-12T00:13:44;12.20;;;10.93;;
59876;SDS011;45749;51.140;17.184;2023-09-12T00:16:09;12.35;;;10.25;;
59876;SDS011;45749;51.140;17.184;2023-09-12T00:18:35;15.15;;;11.63;;
59876;SDS011;45749;51.140;17.184;2023-09-12T00:21:01;12.23;;;10.98;;
59876;SDS011;45749;51.140;17.184;2023-09-12T00:23:27;14.05;;;12.25;;
59876;SDS011;45749;51.140;17.184;2023-09-12T00:25:53;13.60;;;11.90;;
59876;SDS011;45749;51.140;17.184;2023-09-12T00:28:19;13.13;;;11.77;;
59876;SDS011;45749;51.140;17.184;2023-09-12T00:30:44;16.00;;;11.63;;
59876;SDS011;45749;51.140;17.184;2023-09-12T00:33:10;12.02;;;10.73;;
59876;SDS011;45749;51.140;17.184;2023-09-12T00:35:35;14.85;;;11.52;;
59876;SDS011;45749;51.140;17.184;2023-09-12T00:38:00;13.63;;;10.68;;
59876;SDS011;45749;51.140;17.184;2023-09-12T00:40:26;13.48;;;12.02;;
59876;SDS011;45749;51.140;17.184;2023-09-12T00:42:51;12.47;;;11.17;;
59876;SDS011;45749;51.140;17.184;2023-09-12T00:45:16;13.87;;;12.27;;
59876;SDS011;45749;51.140;17.184;2023-09-12T00:47:42;12.45;;;11.15;;
59876;SDS011;45749;51.140;17.184;2023-09-12T00:50:07;13.48;;;12.10;;
59876;SDS011;45749;51.140;17.184;2023-09-12T00:52:34;13.82;;;11.85;;
59876;SDS011;45749;51.140;17.184;2023-09-12T00:55:00;11.75;;;10.50;;
59876;SDS011;45749;51.140;17.184;2023-09-12T00:57:26;15.25;;;11.40;;
59876;SDS011;45749;51.140;17.184;2023-09-12T00:59:53;18.35;;;11.43;;
59876;SDS011;45749;51.140;17.184;2023-09-12T01:02:19;13.68;;;11.60;;
59876;SDS011;45749;51.140;17.184;2023-09-12T01:04:45;14.95;;;12.00;;
59876;SDS011;45749;51.140;17.184;2023-09-12T01:07:12;13.65;;;12.00;;
59876;SDS011;45749;51.140;17.184;2023-09-12T01:09:37;15.15;;;11.80;;
59876;SDS011;45749;51.140;17.184;2023-09-12T01:12:03;14.13;;;12.55;;
59876;SDS011;45749;51.140;17.184;2023-09-12T01:14:29;16.33;;;11.77;;
59876;SDS011;45749;51.140;17.184;2023-09-12T01:16:55;13.90;;;11.27;;
59876;SDS011;45749;51.140;17.184;2023-09-12T01:19:22;13.57;;;11.85;;
59876;SDS011;45749;51.140;17.184;2023-09-12T01:22:09;16.75;;;12.75;;
59876;SDS011;45749;51.140;17.184;2023-09-12T01:27:32;14.88;;;12.18;;
59876;SDS011;45749;51.140;17.184;2023-09-12T01:30:01;13.95;;;12.48;;
59876;SDS011;45749;51.140;17.184;2023-09-12T01:32:29;16.83;;;11.95;;
59876;SDS011;45749;51.140;17.184;2023-09-12T01:34:54;14.68;;;12.18;;
59876;SDS011;45749;51.140;17.184;2023-09-12T01:37:20;14.55;;;11.32;;
59876;SDS011;45749;51.140;17.184;2023-09-12T01:39:45;13.35;;;11.75;;
59876;SDS011;45749;51.140;17.184;2023-09-12T01:42:11;14.77;;;11.82;;
59876;SDS011;45749;51.140;17.184;2023-09-12T01:44:40;13.82;;;12.15;;
59876;SDS011;45749;51.140;17.184;2023-09-12T01:47:08;15.43;;;11.77;;
59876;SDS011;45749;51.140;17.184;2023-09-12T01:49:35;15.20;;;12.68;;
59876;SDS011;45749;51.140;17.184;2023-09-12T01:52:02;15.35;;;12.70;;
59876;SDS011;45749;51.140;17.184;2023-09-12T01:54:28;15.02;;;12.60;;
59876;SDS011;45749;51.140;17.184;2023-09-12T01:56:54;14.43;;;12.70;;
59876;SDS011;45749;51.140;17.184;2023-09-12T01:59:22;14.82;;;13.10;;
59876;SDS011;45749;51.140;17.184;2023-09-12T02:01:48;14.60;;;12.15;;
59876;SDS011;45749;51.140;17.184;2023-09-12T02:04:14;15.68;;;12.75;;
59876;SDS011;45749;51.140;17.184;2023-09-12T02:06:39;14.93;;;13.15;;
59876;SDS011;45749;51.140;17.184;2023-09-12T02:09:04;13.80;;;12.30;;
59876;SDS011;45749;51.140;17.184;2023-09-12T02:11:30;13.38;;;11.98;;
59876;SDS011;45749;51.140;17.184;2023-09-12T02:13:55;15.82;;;13.30;;
59876;SDS011;45749;51.140;17.184;2023-09-12T02:16:20;16.43;;;12.73;;
59876;SDS011;45749;51.140;17.184;2023-09-12T02:18:45;14.37;;;12.93;;
59876;SDS011;45749;51.140;17.184;2023-09-12T02:21:11;14.43;;;12.80;;
59876;SDS011;45749;51.140;17.184;2023-09-12T02:23:36;14.60;;;11.85;;
59876;SDS011;45749;51.140;17.184;2023-09-12T02:26:01;14.15;;;12.60;;
59876;SDS011;45749;51.140;17.184;2023-09-12T02:28:27;15.45;;;12.60;;
59876;SDS011;45749;51.140;17.184;2023-09-12T02:30:52;16.08;;;12.43;;
59876;SDS011;45749;51.140;17.184;2023-09-12T02:33:17;17.40;;;12.63;;
59876;SDS011;45749;51.140;17.184;2023-09-12T02:35:43;14.70;;;11.63;;
59876;SDS011;45749;51.140;17.184;2023-09-12T02:38:08;15.93;;;12.70;;
59876;SDS011;45749;51.140;17.184;2023-09-12T02:40:34;13.57;;;12.18;;
59876;SDS011;45749;51.140;17.184;2023-09-12T02:42:59;14.88;;;12.10;;
59876;SDS011;45749;51.140;17.184;2023-09-12T02:45:25;16.60;;;12.60;;
59876;SDS011;45749;51.140;17.184;2023-09-12T02:47:50;14.25;;;11.48;;
59876;SDS011;45749;51.140;17.184;2023-09-12T02:50:15;15.40;;;12.60;;
59876;SDS011;45749;51.140;17.184;2023-09-12T02:52:40;14.13;;;11.13;;
59876;SDS011;45749;51.140;17.184;2023-09-12T02:55:06;14.48;;;12.20;;
59876;SDS011;45749;51.140;17.184;2023-09-12T02:57:31;15.20;;;12.75;;
59876;SDS011;45749;51.140;17.184;2023-09-12T02:59:57;12.85;;;11.43;;
59876;SDS011;45749;51.140;17.184;2023-09-12T03:02:22;15.02;;;12.45;;
59876;SDS011;45749;51.140;17.184;2023-09-12T03:04:47;13.38;;;11.65;;
59876;SDS011;45749;51.140;17.184;2023-09-12T03:07:13;16.70;;;11.60;;
59876;SDS011;45749;51.140;17.184;2023-09-12T03:09:38;14.60;;;12.32;;
59876;SDS011;45749;51.140;17.184;2023-09-12T03:12:04;17.67;;;12.05;;
59876;SDS011;45749;51.140;17.184;2023-09-12T03:14:29;15.38;;;12.15;;
59876;SDS011;45749;51.140;17.184;2023-09-12T03:16:55;15.68;;;12.77;;
59876;SDS011;45749;51.140;17.184;2023-09-12T03:19:21;13.25;;;11.45;;
59876;SDS011;45749;51.140;17.184;2023-09-12T03:21:46;13.95;;;11.52;;
59876;SDS011;45749;51.140;17.184;2023-09-12T03:24:11;14.00;;;10.90;;
59876;SDS011;45749;51.140;17.184;2023-09-12T03:26:37;14.77;;;12.27;;
59876;SDS011;45749;51.140;17.184;2023-09-12T03:29:05;15.38;;;12.70;;
59876;SDS011;45749;51.140;17.184;2023-09-12T03:31:30;15.52;;;11.93;;
59876;SDS011;45749;51.140;17.184;2023-09-12T03:33:56;16.08;;;12.73;;
59876;SDS011;45749;51.140;17.184;2023-09-12T03:36:21;13.32;;;11.95;;
59876;SDS011;45749;51.140;17.184;2023-09-12T03:38:46;16.57;;;11.60;;
59876;SDS011;45749;51.140;17.184;2023-09-12T03:41:12;12.63;;;11.27;;
59876;SDS011;45749;51.140;17.184;2023-09-12T03:43:37;13.77;;;12.23;;
59876;SDS011;45749;51.140;17.184;2023-09-12T03:46:02;16.17;;;11.75;;
59876;SDS011;45749;51.140;17.184;2023-09-12T03:48:28;13.45;;;11.20;;
59876;SDS011;45749;51.140;17.184;2023-09-12T03:50:55;13.15;;;10.30;;
59876;SDS011;45749;51.140;17.184;2023-09-12T03:53:21;14.07;;;10.98;;
59876;SDS011;45749;51.140;17.184;2023-09-12T03:55:46;17.77;;;11.47;;
59876;SDS011;45749;51.140;17.184;2023-09-12T03:58:11;13.20;;;11.02;;
59876;SDS011;45749;51.140;17.184;2023-09-12T04:00:37;12.82;;;11.23;;
59876;SDS011;45749;51.140;17.184;2023-09-12T04:03:02;15.75;;;11.30;;
59876;SDS011;45749;51.140;17.184;2023-09-12T04:05:28;12.23;;;10.02;;
59876;SDS011;45749;51.140;17.184;2023-09-12T04:07:53;15.63;;;11.35;;
59876;SDS011;45749;51.140;17.184;2023-09-12T04:10:19;12.05;;;10.68;;
59876;SDS011;45749;51.140;17.184;2023-09-12T04:12:45;12.30;;;11.00;;
59876;SDS011;45749;51.140;17.184;2023-09-12T04:15:11;16.63;;;11.30;;
59876;SDS011;45749;51.140;17.184;2023-09-12T04:17:36;19.75;;;11.77;;
59876;SDS011;45749;51.140;17.184;2023-09-12T04:20:01;12.88;;;11.50;;
59876;SDS011;45749;51.140;17.184;2023-09-12T04:22:27;13.95;;;11.40;;
59876;SDS011;45749;51.140;17.184;2023-09-12T04:24:53;17.38;;;12.05;;
59876;SDS011;45749;51.140;17.184;2023-09-12T04:27:19;13.85;;;12.45;;
59876;SDS011;45749;51.140;17.184;2023-09-12T04:29:44;14.05;;;11.65;;
59876;SDS011;45749;51.140;17.184;2023-09-12T04:32:09;15.52;;;11.75;;
59876;SDS011;45749;51.140;17.184;2023-09-12T04:34:35;15.30;;;12.68;;
59876;SDS011;45749;51.140;17.184;2023-09-12T04:37:00;14.15;;;11.68;;
59876;SDS011;45749;51.140;17.184;2023-09-12T04:39:27;15.30;;;12.23;;
59876;SDS011;45749;51.140;17.184;2023-09-12T04:41:53;16.00;;;12.18;;
59876;SDS011;45749;51.140;17.184;2023-09-12T04:44:18;17.02;;;10.85;;
59876;SDS011;45749;51.140;17.184;2023-09-12T04:46:43;18.10;;;11.68;;
59876;SDS011;45749;51.140;17.184;2023-09-12T04:49:09;16.50;;;11.82;;
59876;SDS011;45749;51.140;17.184;2023-09-12T04:51:35;13.73;;;11.38;;
59876;SDS011;45749;51.140;17.184;2023-09-12T04:54:00;16.53;;;11.80;;
59876;SDS011;45749;51.140;17.184;2023-09-12T04:56:25;14.65;;;12.25;;
59876;SDS011;45749;51.140;17.184;2023-09-12T04:58:51;20.67;;;12.63;;
59876;SDS011;45749;51.140;17.184;2023-09-12T05:01:16;16.40;;;12.75;;
59876;SDS011;45749;51.140;17.184;2023-09-12T05:03:42;18.55;;;14.95;;
59876;SDS011;45749;51.140;17.184;2023-09-12T05:06:07;18.63;;;13.35;;
59876;SDS011;45749;51.140;17.184;2023-09-12T05:08:32;14.75;;;12.52;;
59876;SDS011;45749;51.140;17.184;2023-09-12T05:10:58;19.75;;;13.02;;
59876;SDS011;45749;51.140;17.184;2023-09-12T05:13:23;21.83;;;13.10;;
59876;SDS011;45749;51.140;17.184;2023-09-12T05:15:48;15.85;;;11.90;;
59876;SDS011;45749;51.140;17.184;2023-09-12T05:18:14;15.23;;;12.75;;
59876;SDS011;45749;51.140;17.184;2023-09-12T05:20:39;14.35;;;11.60;;
59876;SDS011;45749;51.140;17.184;2023-09-12T05:23:04;14.40;;;11.45;;
59876;SDS011;45749;51.140;17.184;2023-09-12T05:25:30;15.48;;;11.98;;
59876;SDS011;45749;51.140;17.184;2023-09-12T05:27:55;15.93;;;12.35;;
59876;SDS011;45749;51.140;17.184;2023-09-12T05:30:20;16.58;;;11.70;;
59876;SDS011;45749;51.140;17.184;2023-09-12T05:32:46;15.98;;;12.25;;
59876;SDS011;45749;51.140;17.184;2023-09-12T05:35:11;17.25;;;13.23;;
59876;SDS011;45749;51.140;17.184;2023-09-12T05:37:36;18.40;;;12.63;;
59876;SDS011;45749;51.140;17.184;2023-09-12T05:40:02;14.07;;;12.57;;
59876;SDS011;45749;51.140;17.184;2023-09-12T05:42:28;15.57;;;13.45;;
59876;SDS011;45749;51.140;17.184;2023-09-12T05:44:53;17.17;;;12.13;;
59876;SDS011;45749;51.140;17.184;2023-09-12T05:47:22;18.02;;;13.73;;
59876;SDS011;45749;51.140;17.184;2023-09-12T05:49:47;16.05;;;12.50;;
59876;SDS011;45749;51.140;17.184;2023-09-12T05:52:13;15.85;;;12.80;;
59876;SDS011;45749;51.140;17.184;2023-09-12T05:54:39;16.73;;;14.38;;
59876;SDS011;45749;51.140;17.184;2023-09-12T05:57:05;15.10;;;13.27;;
59876;SDS011;45749;51.140;17.184;2023-09-12T05:59:31;17.23;;;13.98;;
59876;SDS011;45749;51.140;17.184;2023-09-12T06:01:56;17.55;;;14.23;;
59876;SDS011;45749;51.140;17.184;2023-09-12T06:04:22;17.30;;;13.85;;
59876;SDS011;45749;51.140;17.184;2023-09-12T06:06:47;15.27;;;13.43;;
59876;SDS011;45749;51.140;17.184;2023-09-12T06:09:12;16.25;;;13.63;;
59876;SDS011;45749;51.140;17.184;2023-09-12T06:11:38;17.57;;;14.70;;
59876;SDS011;45749;51.140;17.184;2023-09-12T06:14:03;16.20;;;13.40;;
59876;SDS011;45749;51.140;17.184;2023-09-12T06:16:29;21.80;;;14.35;;
59876;SDS011;45749;51.140;17.184;2023-09-12T06:18:54;17.77;;;14.77;;
59876;SDS011;45749;51.140;17.184;2023-09-12T06:21:20;17.02;;;14.30;;
59876;SDS011;45749;51.140;17.184;2023-09-12T06:23:46;17.50;;;14.27;;
59876;SDS011;45749;51.140;17.184;2023-09-12T06:26:12;17.23;;;13.57;;
59876;SDS011;45749;51.140;17.184;2023-09-12T06:28:37;19.70;;;14.35;;
59876;SDS011;45749;51.140;17.184;2023-09-12T06:31:03;18.27;;;14.60;;
59876;SDS011;45749;51.140;17.184;2023-09-12T06:33:28;18.88;;;14.95;;
59876;SDS011;45749;51.140;17.184;2023-09-12T06:35:53;16.65;;;14.77;;
59876;SDS011;45749;51.140;17.184;2023-09-12T06:38:20;20.17;;;16.10;;
59876;SDS011;45749;51.140;17.184;2023-09-12T06:40:46;20.83;;;15.85;;
59876;SDS011;45749;51.140;17.184;2023-09-12T06:43:12;20.48;;;15.07;;
59876;SDS011;45749;51.140;17.184;2023-09-12T06:45:39;19.02;;;15.20;;
59876;SDS011;45749;51.140;17.184;2023-09-12T06:48:05;16.63;;;14.25;;
59876;SDS011;45749;51.140;17.184;2023-09-12T06:50:31;19.05;;;15.43;;
59876;SDS011;45749;51.140;17.184;2023-09-12T06:52:56;18.77;;;14.50;;
59876;SDS011;45749;51.140;17.184;2023-09-12T06:55:21;15.35;;;13.77;;
59876;SDS011;45749;51.140;17.184;2023-09-12T06:57:47;18.83;;;12.90;;
59876;SDS011;45749;51.140;17.184;2023-09-12T07:00:12;16.30;;;14.63;;
59876;SDS011;45749;51.140;17.184;2023-09-12T07:02:38;16.38;;;14.02;;
59876;SDS011;45749;51.140;17.184;2023-09-12T07:05:04;17.40;;;15.32;;
59876;SDS011;45749;51.140;17.184;2023-09-12T07:07:30;15.90;;;13.65;;
59876;SDS011;45749;51.140;17.184;2023-09-12T07:09:55;14.48;;;12.82;;
59876;SDS011;45749;51.140;17.184;2023-09-12T07:12:21;16.13;;;14.05;;
59876;SDS011;45749;51.140;17.184;2023-09-12T07:14:46;15.23;;;13.70;;
59876;SDS011;45749;51.140;17.184;2023-09-12T07:17:12;17.73;;;14.80;;
59876;SDS011;45749;51.140;17.184;2023-09-12T07:19:37;16.63;;;14.85;;
59876;SDS011;45749;51.140;17.184;2023-09-12T07:22:02;16.10;;;14.45;;
59876;SDS011;45749;51.140;17.184;2023-09-12T07:24:28;18.08;;;14.13;;
59876;SDS011;45749;51.140;17.184;2023-09-12T07:26:53;15.88;;;14.18;;
59876;SDS011;45749;51.140;17.184;2023-09-12T07:29:18;14.73;;;12.90;;
59876;SDS011;45749;51.140;17.184;2023-09-12T07:31:44;14.80;;;11.82;;
59876;SDS011;45749;51.140;17.184;2023-09-12T07:34:09;13.48;;;12.07;;
59876;SDS011;45749;51.140;17.184;2023-09-12T07:36:36;15.20;;;13.50;;
59876;SDS011;45749;51.140;17.184;2023-09-12T07:39:02;15.07;;;13.15;;
59876;SDS011;45749;51.140;17.184;2023-09-12T07:41:28;15.32;;;12.48;;
59876;SDS011;45749;51.140;17.184;2023-09-12T07:43:54;13.38;;;11.98;;
59876;SDS011;45749;51.140;17.184;2023-09-12T07:46:19;14.73;;;12.95;;
59876;SDS011;45749;51.140;17.184;2023-09-12T07:48:45;13.52;;;11.00;;
59876;SDS011;45749;51.140;17.184;2023-09-12T07:51:16;13.38;;;11.95;;
59876;SDS011;45749;51.140;17.184;2023-09-12T07:53:43;16.02;;;11.77;;
59876;SDS011;45749;51.140;17.184;2023-09-12T07:56:09;13.52;;;11.57;;
59876;SDS011;45749;51.140;17.184;2023-09-12T07:58:37;14.27;;;11.88;;
59876;SDS011;45749;51.140;17.184;2023-09-12T08:01:06;15.60;;;12.77;;
59876;SDS011;45749;51.140;17.184;2023-09-12T08:03:33;14.43;;;11.82;;
59876;SDS011;45749;51.140;17.184;2023-09-12T08:06:02;13.32;;;10.68;;
59876;SDS011;45749;51.140;17.184;2023-09-12T08:08:28;12.32;;;10.35;;
59876;SDS011;45749;51.140;17.184;2023-09-12T08:10:55;12.85;;;10.30;;
59876;SDS011;45749;51.140;17.184;2023-09-12T08:13:21;11.07;;;9.95;;
59876;SDS011;45749;51.140;17.184;2023-09-12T08:15:47;11.88;;;10.60;;
59876;SDS011;45749;51.140;17.184;2023-09-12T08:18:12;11.52;;;9.90;;
59876;SDS011;45749;51.140;17.184;2023-09-12T08:20:38;12.87;;;10.10;;
59876;SDS011;45749;51.140;17.184;2023-09-12T08:23:03;14.52;;;11.90;;
59876;SDS011;45749;51.140;17.184;2023-09-12T08:25:29;16.70;;;10.63;;
59876;SDS011;45749;51.140;17.184;2023-09-12T08:27:54;13.57;;;11.13;;
59876;SDS011;45749;51.140;17.184;2023-09-12T08:30:19;13.85;;;10.60;;
59876;SDS011;45749;51.140;17.184;2023-09-12T08:32:45;11.43;;;10.20;;
59876;SDS011;45749;51.140;17.184;2023-09-12T08:35:11;13.85;;;9.95;;
59876;SDS011;45749;51.140;17.184;2023-09-12T08:37:40;11.73;;;10.43;;
59876;SDS011;45749;51.140;17.184;2023-09-12T08:40:09;12.27;;;9.48;;
59876;SDS011;45749;51.140;17.184;2023-09-12T08:42:37;16.27;;;10.02;;
59876;SDS011;45749;51.140;17.184;2023-09-12T08:45:17;11.83;;;8.93;;
59876;SDS011;45749;51.140;17.184;2023-09-12T08:47:44;11.27;;;9.27;;
59876;SDS011;45749;51.140;17.184;2023-09-12T08:50:11;10.63;;;9.52;;
59876;SDS011;45749;51.140;17.184;2023-09-12T08:52:38;14.43;;;9.60;;
59876;SDS011;45749;51.140;17.184;2023-09-12T08:55:04;10.52;;;9.20;;
59876;SDS011;45749;51.140;17.184;2023-09-12T08:57:30;10.57;;;8.90;;
59876;SDS011;45749;51.140;17.184;2023-09-12T08:59:58;10.23;;;8.70;;
59876;SDS011;45749;51.140;17.184;2023-09-12T09:02:27;13.02;;;9.98;;
59876;SDS011;45749;51.140;17.184;2023-09-12T09:04:53;13.52;;;8.85;;
59876;SDS011;45749;51.140;17.184;2023-09-12T09:07:20;11.20;;;9.25;;
59876;SDS011;45749;51.140;17.184;2023-09-12T09:09:46;10.93;;;8.38;;
59876;SDS011;45749;51.140;17.184;2023-09-12T09:12:13;9.73;;;8.50;;
59876;SDS011;45749;51.140;17.184;2023-09-12T09:14:39;12.20;;;8.90;;
59876;SDS011;45749;51.140;17.184;2023-09-12T09:17:04;12.02;;;9.68;;
59876;SDS011;45749;51.140;17.184;2023-09-12T09:19:44;12.93;;;10.00;;
59876;SDS011;45749;51.140;17.184;2023-09-12T09:22:10;10.65;;;9.57;;
59876;SDS011;45749;51.140;17.184;2023-09-12T09:24:36;13.77;;;10.82;;
59876;SDS011;45749;51.140;17.184;2023-09-12T09:27:01;15.93;;;10.55;;
59876;SDS011;45749;51.140;17.184;2023-09-12T09:29:27;13.88;;;9.15;;
59876;SDS011;45749;51.140;17.184;2023-09-12T09:34:25;11.48;;;9.82;;
59876;SDS011;45749;51.140;17.184;2023-09-12T09:36:54;12.35;;;9.90;;
59876;SDS011;45749;51.140;17.184;2023-09-12T09:39:25;12.50;;;10.32;;
59876;SDS011;45749;51.140;17.184;2023-09-12T09:44:20;14.13;;;10.75;;
59876;SDS011;45749;51.140;17.184;2023-09-12T09:46:50;12.10;;;9.55;;
59876;SDS011;45749;51.140;17.184;2023-09-12T09:51:46;12.45;;;10.45;;
59876;SDS011;45749;51.140;17.184;2023-09-12T09:54:11;12.43;;;9.77;;
59876;SDS011;45749;51.140;17.184;2023-09-12T09:56:50;11.27;;;9.63;;
59876;SDS011;45749;51.140;17.184;2023-09-12T09:59:19;11.77;;;9.77;;
59876;SDS011;45749;51.140;17.184;2023-09-12T10:01:46;11.05;;;8.93;;
59876;SDS011;45749;51.140;17.184;2023-09-12T10:04:14;10.75;;;9.65;;
59876;SDS011;45749;51.140;17.184;2023-09-12T10:06:40;16.05;;;9.95;;
59876;SDS011;45749;51.140;17.184;2023-09-12T10:09:09;10.98;;;9.73;;
59876;SDS011;45749;51.140;17.184;2023-09-12T10:11:37;10.05;;;9.00;;
59876;SDS011;45749;51.140;17.184;2023-09-12T10:14:04;10.27;;;8.80;;
59876;SDS011;45749;51.140;17.184;2023-09-12T10:19:15;11.02;;;7.85;;
59876;SDS011;45749;51.140;17.184;2023-09-12T10:21:46;9.55;;;7.78;;
59876;SDS011;45749;51.140;17.184;2023-09-12T10:24:14;10.77;;;7.57;;
59876;SDS011;45749;51.140;17.184;2023-09-12T10:26:41;8.23;;;7.28;;
59876;SDS011;45749;51.140;17.184;2023-09-12T10:29:10;8.70;;;6.80;;
59876;SDS011;45749;51.140;17.184;2023-09-12T10:31:38;8.00;;;7.20;;
59876;SDS011;45749;51.140;17.184;2023-09-12T10:34:04;9.38;;;8.07;;
59876;SDS011;45749;51.140;17.184;2023-09-12T10:36:34;10.57;;;7.78;;
59876;SDS011;45749;51.140;17.184;2023-09-12T10:39:03;8.35;;;7.32;;
59876;SDS011;45749;51.140;17.184;2023-09-12T10:41:30;8.00;;;7.20;;
59876;SDS011;45749;51.140;17.184;2023-09-12T10:43:55;7.75;;;6.97;;
59876;SDS011;45749;51.140;17.184;2023-09-12T10:46:23;6.88;;;6.25;;
59876;SDS011;45749;51.140;17.184;2023-09-12T10:48:48;9.75;;;6.47;;
59876;SDS011;45749;51.140;17.184;2023-09-12T10:51:15;17.20;;;8.50;;
59876;SDS011;45749;51.140;17.184;2023-09-12T10:53:46;10.30;;;7.95;;
59876;SDS011;45749;51.140;17.184;2023-09-12T10:56:15;7.82;;;6.85;;
59876;SDS011;45749;51.140;17.184;2023-09-12T11:01:38;9.07;;;7.00;;
59876;SDS011;45749;51.140;17.184;2023-09-12T11:06:52;7.20;;;6.53;;
59876;SDS011;45749;51.140;17.184;2023-09-12T11:09:21;7.20;;;6.50;;
59876;SDS011;45749;51.140;17.184;2023-09-12T11:11:48;7.85;;;7.05;;
59876;SDS011;45749;51.140;17.184;2023-09-12T11:14:19;7.53;;;6.70;;
59876;SDS011;45749;51.140;17.184;2023-09-12T11:19:46;9.77;;;7.83;;
59876;SDS011;45749;51.140;17.184;2023-09-12T11:22:26;8.27;;;6.45;;
59876;SDS011;45749;51.140;17.184;2023-09-12T11:24:53;7.07;;;6.35;;
59876;SDS011;45749;51.140;17.184;2023-09-12T11:27:21;14.35;;;7.28;;
59876;SDS011;45749;51.140;17.184;2023-09-12T11:29:49;8.05;;;6.78;;
59876;SDS011;45749;51.140;17.184;2023-09-12T11:32:35;6.80;;;5.85;;
59876;SDS011;45749;51.140;17.184;2023-09-12T11:35:05;7.43;;;6.43;;
59876;SDS011;45749;51.140;17.184;2023-09-12T11:37:32;7.03;;;5.55;;
59876;SDS011;45749;51.140;17.184;2023-09-12T11:39:58;10.60;;;6.85;;
59876;SDS011;45749;51.140;17.184;2023-09-12T11:42:24;10.43;;;6.40;;
59876;SDS011;45749;51.140;17.184;2023-09-12T11:44:53;7.90;;;6.38;;
59876;SDS011;45749;51.140;17.184;2023-09-12T11:47:18;7.95;;;6.45;;
59876;SDS011;45749;51.140;17.184;2023-09-12T11:49:45;7.35;;;6.35;;
59876;SDS011;45749;51.140;17.184;2023-09-12T11:52:12;7.20;;;6.18;;
59876;SDS011;45749;51.140;17.184;2023-09-12T11:54:39;6.03;;;5.43;;
59876;SDS011;45749;51.140;17.184;2023-09-12T11:57:12;7.93;;;6.75;;
59876;SDS011;45749;51.140;17.184;2023-09-12T11:59:39;7.90;;;7.13;;
59876;SDS011;45749;51.140;17.184;2023-09-12T12:02:07;7.80;;;6.07;;
59876;SDS011;45749;51.140;17.184;2023-09-12T12:04:33;13.70;;;6.53;;
59876;SDS011;45749;51.140;17.184;2023-09-12T12:06:59;7.50;;;6.32;;
59876;SDS011;45749;51.140;17.184;2023-09-12T12:09:26;7.60;;;6.45;;
59876;SDS011;45749;51.140;17.184;2023-09-12T12:11:52;9.50;;;6.38;;
59876;SDS011;45749;51.140;17.184;2023-09-12T12:14:17;7.07;;;6.38;;
59876;SDS011;45749;51.140;17.184;2023-09-12T12:16:44;6.85;;;5.90;;
59876;SDS011;45749;51.140;17.184;2023-09-12T12:19:11;12.82;;;5.95;;
59876;SDS011;45749;51.140;17.184;2023-09-12T12:21:38;7.30;;;6.40;;
59876;SDS011;45749;51.140;17.184;2023-09-12T12:24:04;8.27;;;6.30;;
59876;SDS011;45749;51.140;17.184;2023-09-12T12:26:31;7.25;;;5.88;;
59876;SDS011;45749;51.140;17.184;2023-09-12T12:28:58;8.38;;;5.88;;
59876;SDS011;45749;51.140;17.184;2023-09-12T12:31:25;6.50;;;5.78;;
59876;SDS011;45749;51.140;17.184;2023-09-12T12:33:56;6.95;;;6.28;;
59876;SDS011;45749;51.140;17.184;2023-09-12T12:36:22;8.18;;;6.15;;
59876;SDS011;45749;51.140;17.184;2023-09-12T12:38:48;7.72;;;6.00;;
59876;SDS011;45749;51.140;17.184;2023-09-12T12:41:21;6.53;;;5.90;;
59876;SDS011;45749;51.140;17.184;2023-09-12T12:43:49;7.38;;;6.13;;
59876;SDS011;45749;51.140;17.184;2023-09-12T12:46:18;7.57;;;5.68;;
59876;SDS011;45749;51.140;17.184;2023-09-12T12:48:47;8.07;;;5.90;;
59876;SDS011;45749;51.140;17.184;2023-09-12T12:51:23;7.00;;;6.40;;
59876;SDS011;45749;51.140;17.184;2023-09-12T12:53:50;6.80;;;6.10;;
59876;SDS011;45749;51.140;17.184;2023-09-12T12:56:22;9.23;;;6.43;;
59876;SDS011;45749;51.140;17.184;2023-09-12T12:58:49;6.40;;;5.78;;
59876;SDS011;45749;51.140;17.184;2023-09-12T13:01:22;7.85;;;7.05;;
59876;SDS011;45749;51.140;17.184;2023-09-12T13:03:47;6.88;;;5.72;;
59876;SDS011;45749;51.140;17.184;2023-09-12T13:06:15;8.43;;;6.78;;
59876;SDS011;45749;51.140;17.184;2023-09-12T13:08:42;9.68;;;6.20;;
59876;SDS011;45749;51.140;17.184;2023-09-12T13:11:09;7.18;;;6.47;;
59876;SDS011;45749;51.140;17.184;2023-09-12T13:13:35;6.20;;;5.47;;
59876;SDS011;45749;51.140;17.184;2023-09-12T13:16:02;7.07;;;6.38;;
59876;SDS011;45749;51.140;17.184;2023-09-12T13:18:34;6.45;;;5.85;;
59876;SDS011;45749;51.140;17.184;2023-09-12T13:21:02;7.38;;;6.45;;
59876;SDS011;45749;51.140;17.184;2023-09-12T13:23:28;7.80;;;7.07;;
59876;SDS011;45749;51.140;17.184;2023-09-12T13:25:55;6.97;;;6.38;;
59876;SDS011;45749;51.140;17.184;2023-09-12T13:28:21;7.07;;;6.35;;
59876;SDS011;45749;51.140;17.184;2023-09-12T13:33:18;9.27;;;6.20;;
59876;SDS011;45749;51.140;17.184;2023-09-12T13:35:44;7.90;;;7.10;;
59876;SDS011;45749;51.140;17.184;2023-09-12T13:38:09;8.43;;;6.40;;
59876;SDS011;45749;51.140;17.184;2023-09-12T13:40:36;7.82;;;6.97;;
59876;SDS011;45749;51.140;17.184;2023-09-12T13:43:03;8.23;;;7.40;;
59876;SDS011;45749;51.140;17.184;2023-09-12T13:45:29;7.15;;;6.40;;
59876;SDS011;45749;51.140;17.184;2023-09-12T13:47:54;10.40;;;6.37;;
59876;SDS011;45749;51.140;17.184;2023-09-12T13:50:19;8.87;;;7.30;;
59876;SDS011;45749;51.140;17.184;2023-09-12T13:52:45;9.13;;;6.50;;
59876;SDS011;45749;51.140;17.184;2023-09-12T13:55:10;7.30;;;6.37;;
59876;SDS011;45749;51.140;17.184;2023-09-12T13:57:38;7.82;;;6.13;;
59876;SDS011;45749;51.140;17.184;2023-09-12T14:00:04;9.13;;;6.63;;
59876;SDS011;45749;51.140;17.184;2023-09-12T14:02:30;6.85;;;6.25;;
59876;SDS011;45749;51.140;17.184;2023-09-12T14:04:55;8.57;;;7.03;;
59876;SDS011;45749;51.140;17.184;2023-09-12T14:07:21;10.17;;;7.07;;
59876;SDS011;45749;51.140;17.184;2023-09-12T14:09:46;8.52;;;6.85;;
59876;SDS011;45749;51.140;17.184;2023-09-12T14:12:14;8.50;;;6.10;;
59876;SDS011;45749;51.140;17.184;2023-09-12T14:14:40;9.30;;;7.03;;
59876;SDS011;45749;51.140;17.184;2023-09-12T14:17:05;6.43;;;5.53;;
59876;SDS011;45749;51.140;17.184;2023-09-12T14:19:30;7.83;;;6.53;;
59876;SDS011;45749;51.140;17.184;2023-09-12T14:21:56;10.38;;;6.72;;
59876;SDS011;45749;51.140;17.184;2023-09-12T14:24:21;8.05;;;6.57;;
59876;SDS011;45749;51.140;17.184;2023-09-12T14:26:47;8.73;;;6.07;;
59876;SDS011;45749;51.140;17.184;2023-09-12T14:29:12;8.55;;;6.45;;
59876;SDS011;45749;51.140;17.184;2023-09-12T14:31:38;8.25;;;6.30;;
59876;SDS011;45749;51.140;17.184;2023-09-12T14:34:03;7.13;;;6.28;;
59876;SDS011;45749;51.140;17.184;2023-09-12T14:36:30;7.15;;;6.32;;
59876;SDS011;45749;51.140;17.184;2023-09-12T14:38:55;9.38;;;6.45;;